sensor_id;sensor_type;location;lat;lon;timestamp;pressure;altitude;pressure_sealevel;temperature;humidity
13367;BME280;6752;52.612;13.630;2023-05-02T00:03:48;100633.31;;;11.43;100.00
13367;BME280;6752;52.612;13.630;2023-05-02T00:08:50;100629.84;;;11.36;100.00
13367;BME280;6752;52.612;13.630;2023-05-02T00:13:53;100630.03;;;11.38;100.00
13367;BME280;6752;52.612;13.630;2023-05-02T00:18:55;100626.45;;;11.19;100.00
13367;BME280;6752;52.612;13.630;2023-05-02T00:23:58;100624.67;;;11.06;100.00
13367;BME280;6752;52.612;13.630;2023-05-02T00:29:00;100620.23;;;10.53;100.00
13367;BME280;6752;52.612;13.630;2023-05-02T00:34:02;100613.17;;;10.58;100.00
13367;BME280;6752;52.612;13.630;2023-05-02T00:39:05;100618.47;;;10.65;100.00
13367;BME280;6752;52.612;13.630;2023-05-02T00:44:07;100616.47;;;10.63;100.00
13367;BME280;6752;52.612;13.630;2023-05-02T00:49:09;100615.78;;;10.58;100.00
13367;BME280;6752;52.612;13.630;2023-05-02T00:54:12;100619.27;;;10.44;100.00
13367;BME280;6752;52.612;13.630;2023-05-02T00:59:14;100621.45;;;10.57;100.00
13367;BME280;6752;52.612;13.630;2023-05-02T01:04:22;100622.34;;;10.67;100.00
13367;BME280;6752;52.612;13.630;2023-05-02T01:14:40;100615.94;;;10.64;97.39
13367;BME280;6752;52.612;13.630;2023-05-02T01:19:42;100615.83;;;10.64;93.59
13367;BME280;6752;52.612;13.630;2023-05-02T01:25:16;100621.76;;;10.58;90.02
13367;BME280;6752;52.612;13.630;2023-05-02T01:30:16;100612.40;;;10.51;92.13
13367;BME280;6752;52.612;13.630;2023-05-02T01:35:18;100625.05;;;10.54;91.13
13367;BME280;6752;52.612;13.630;2023-05-02T01:40:20;100627.61;;;10.49;92.02
13367;BME280;6752;52.612;13.630;2023-05-02T01:45:22;100630.81;;;10.43;93.23
13367;BME280;6752;52.612;13.630;2023-05-02T01:50:25;100639.59;;;10.57;91.76
13367;BME280;6752;52.612;13.630;2023-05-02T01:55:27;100639.53;;;10.51;94.21
13367;BME280;6752;52.612;13.630;2023-05-02T02:00:29;100642.98;;;10.53;94.89
13367;BME280;6752;52.612;13.630;2023-05-02T02:05:32;100642.07;;;10.50;95.54
13367;BME280;6752;52.612;13.630;2023-05-02T02:10:42;100638.31;;;10.47;95.55
13367;BME280;6752;52.612;13.630;2023-05-02T02:15:44;100649.69;;;10.41;96.84
13367;BME280;6752;52.612;13.630;2023-05-02T02:20:45;100655.28;;;10.49;96.67
13367;BME280;6752;52.612;13.630;2023-05-02T02:25:48;100660.35;;;10.27;99.07
13367;BME280;6752;52.612;13.630;2023-05-02T02:30:50;100669.41;;;10.17;100.00
13367;BME280;6752;52.612;13.630;2023-05-02T02:35:57;100673.92;;;10.11;100.00
13367;BME280;6752;52.612;13.630;2023-05-02T02:41:10;100680.24;;;10.05;100.00
13367;BME280;6752;52.612;13.630;2023-05-02T02:51:12;100701.54;;;9.99;100.00
13367;BME280;6752;52.612;13.630;2023-05-02T02:56:18;100696.84;;;9.90;100.00
13367;BME280;6752;52.612;13.630;2023-05-02T03:01:19;100707.39;;;9.77;100.00
13367;BME280;6752;52.612;13.630;2023-05-02T03:06:20;100726.68;;;9.62;100.00
13367;BME280;6752;52.612;13.630;2023-05-02T03:11:22;100731.27;;;9.75;100.00
13367;BME280;6752;52.612;13.630;2023-05-02T03:21:33;100741.66;;;9.59;100.00
13367;BME280;6752;52.612;13.630;2023-05-02T03:26:35;100741.91;;;9.34;100.00
13367;BME280;6752;52.612;13.630;2023-05-02T03:31:38;100743.47;;;9.39;100.00
13367;BME280;6752;52.612;13.630;2023-05-02T03:36:40;100754.27;;;9.27;100.00
13367;BME280;6752;52.612;13.630;2023-05-02T03:41:42;100761.70;;;9.09;100.00
13367;BME280;6752;52.612;13.630;2023-05-02T03:46:45;100776.97;;;9.10;100.00
13367;BME280;6752;52.612;13.630;2023-05-02T03:51:47;100789.20;;;9.10;100.00
13367;BME280;6752;52.612;13.630;2023-05-02T03:56:49;100797.46;;;9.16;100.00
13367;BME280;6752;52.612;13.630;2023-05-02T04:01:51;100803.20;;;9.17;100.00
13367;BME280;6752;52.612;13.630;2023-05-02T04:06:54;100808.05;;;9.28;100.00
13367;BME280;6752;52.612;13.630;2023-05-02T04:11:56;100817.15;;;9.24;100.00
13367;BME280;6752;52.612;13.630;2023-05-02T04:16:58;100824.58;;;9.23;100.00
13367;BME280;6752;52.612;13.630;2023-05-02T04:22:01;100826.98;;;9.29;100.00
13367;BME280;6752;52.612;13.630;2023-05-02T04:27:03;100832.83;;;9.32;100.00
13367;BME280;6752;52.612;13.630;2023-05-02T04:32:06;100835.55;;;9.39;100.00
13367;BME280;6752;52.612;13.630;2023-05-02T04:37:08;100843.59;;;9.46;100.00
13367;BME280;6752;52.612;13.630;2023-05-02T04:42:10;100849.88;;;9.43;100.00
13367;BME280;6752;52.612;13.630;2023-05-02T04:47:12;100856.04;;;9.68;100.00
13367;BME280;6752;52.612;13.630;2023-05-02T04:52:14;100857.95;;;9.71;100.00
13367;BME280;6752;52.612;13.630;2023-05-02T04:57:17;100869.03;;;9.79;100.00
13367;BME280;6752;52.612;13.630;2023-05-02T05:02:19;100880.20;;;10.03;100.00
13367;BME280;6752;52.612;13.630;2023-05-02T05:07:22;100890.23;;;10.19;100.00
13367;BME280;6752;52.612;13.630;2023-05-02T05:12:24;100890.08;;;10.40;100.00
13367;BME280;6752;52.612;13.630;2023-05-02T05:17:26;100901.92;;;10.46;100.00
13367;BME280;6752;52.612;13.630;2023-05-02T05:22:29;100897.50;;;10.77;100.00
13367;BME280;6752;52.612;13.630;2023-05-02T05:27:32;100907.13;;;11.02;100.00
13367;BME280;6752;52.612;13.630;2023-05-02T05:32:33;100917.83;;;11.35;100.00
13367;BME280;6752;52.612;13.630;2023-05-02T05:37:36;100923.69;;;11.42;100.00
13367;BME280;6752;52.612;13.630;2023-05-02T05:42:38;100936.97;;;11.79;100.00
13367;BME280;6752;52.612;13.630;2023-05-02T05:47:40;100940.45;;;12.02;100.00
13367;BME280;6752;52.612;13.630;2023-05-02T05:52:43;100947.55;;;12.40;99.32
13367;BME280;6752;52.612;13.630;2023-05-02T05:57:45;100954.17;;;12.60;99.83
13367;BME280;6752;52.612;13.630;2023-05-02T06:02:47;100958.59;;;12.80;97.30
13367;BME280;6752;52.612;13.630;2023-05-02T06:07:49;100970.06;;;13.12;98.33
13367;BME280;6752;52.612;13.630;2023-05-02T06:12:51;100976.31;;;12.92;95.63
13367;BME280;6752;52.612;13.630;2023-05-02T06:17:53;100982.92;;;13.30;94.81
13367;BME280;6752;52.612;13.630;2023-05-02T06:22:56;100994.76;;;13.78;93.80
13367;BME280;6752;52.612;13.630;2023-05-02T06:27:58;101008.77;;;13.91;95.06
13367;BME280;6752;52.612;13.630;2023-05-02T06:33:02;101014.59;;;14.15;94.25
13367;BME280;6752;52.612;13.630;2023-05-02T06:38:03;101025.11;;;14.24;91.53
13367;BME280;6752;52.612;13.630;2023-05-02T06:43:05;101034.25;;;14.06;90.83
13367;BME280;6752;52.612;13.630;2023-05-02T06:48:07;101048.66;;;14.23;90.39
13367;BME280;6752;52.612;13.630;2023-05-02T06:53:10;101051.70;;;14.41;90.26
13367;BME280;6752;52.612;13.630;2023-05-02T06:58:12;101067.14;;;14.95;89.91
13367;BME280;6752;52.612;13.630;2023-05-02T07:03:14;101061.13;;;15.21;90.33
13367;BME280;6752;52.612;13.630;2023-05-02T07:08:17;101067.80;;;15.25;86.18
13367;BME280;6752;52.612;13.630;2023-05-02T07:13:19;101072.80;;;15.74;83.61
13367;BME280;6752;52.612;13.630;2023-05-02T07:18:22;101084.42;;;15.45;83.45
13367;BME280;6752;52.612;13.630;2023-05-02T07:23:24;101080.17;;;15.71;80.58
13367;BME280;6752;52.612;13.630;2023-05-02T07:28:26;101091.02;;;15.26;83.75
13367;BME280;6752;52.612;13.630;2023-05-02T07:33:29;101085.78;;;16.07;80.54
13367;BME280;6752;52.612;13.630;2023-05-02T07:38:31;101101.23;;;15.48;85.57
13367;BME280;6752;52.612;13.630;2023-05-02T07:43:33;101101.91;;;16.16;81.52
13367;BME280;6752;52.612;13.630;2023-05-02T07:48:36;101100.73;;;16.06;82.64
13367;BME280;6752;52.612;13.630;2023-05-02T07:53:38;101115.31;;;17.10;79.82
13367;BME280;6752;52.612;13.630;2023-05-02T07:58:40;101121.72;;;17.16;75.58
13367;BME280;6752;52.612;13.630;2023-05-02T08:03:43;101127.27;;;15.69;79.05
13367;BME280;6752;52.612;13.630;2023-05-02T08:08:45;101127.78;;;16.25;78.27
13367;BME280;6752;52.612;13.630;2023-05-02T08:13:47;101136.66;;;16.07;79.48
13367;BME280;6752;52.612;13.630;2023-05-02T08:18:50;101144.20;;;16.29;77.83
13367;BME280;6752;52.612;13.630;2023-05-02T08:23:55;101152.16;;;15.91;79.62
13367;BME280;6752;52.612;13.630;2023-05-02T08:28:55;101161.05;;;15.75;80.74
13367;BME280;6752;52.612;13.630;2023-05-02T08:33:57;101157.75;;;15.62;79.78
13367;BME280;6752;52.612;13.630;2023-05-02T08:38:59;101166.47;;;15.79;79.56
13367;BME280;6752;52.612;13.630;2023-05-02T08:44:02;101174.76;;;15.49;83.16
13367;BME280;6752;52.612;13.630;2023-05-02T08:49:04;101185.75;;;15.32;84.33
13367;BME280;6752;52.612;13.630;2023-05-02T08:54:07;101192.56;;;15.47;83.25
13367;BME280;6752;52.612;13.630;2023-05-02T08:59:09;101197.05;;;15.04;84.77
13367;BME280;6752;52.612;13.630;2023-05-02T09:04:15;101205.88;;;15.00;87.66
13367;BME280;6752;52.612;13.630;2023-05-02T09:09:13;101215.03;;;14.88;88.60
13367;BME280;6752;52.612;13.630;2023-05-02T09:14:16;101229.33;;;14.93;90.22
13367;BME280;6752;52.612;13.630;2023-05-02T09:19:24;101234.52;;;14.98;89.90
13367;BME280;6752;52.612;13.630;2023-05-02T09:24:27;101243.48;;;14.73;91.06
13367;BME280;6752;52.612;13.630;2023-05-02T09:29:29;101260.30;;;14.97;94.14
13367;BME280;6752;52.612;13.630;2023-05-02T09:34:31;101256.95;;;14.68;93.13
13367;BME280;6752;52.612;13.630;2023-05-02T09:39:33;101263.74;;;15.19;93.98
13367;BME280;6752;52.612;13.630;2023-05-02T09:44:36;101268.73;;;14.90;96.36
13367;BME280;6752;52.612;13.630;2023-05-02T09:49:44;101270.03;;;15.14;95.98
13367;BME280;6752;52.612;13.630;2023-05-02T09:54:46;101274.72;;;15.31;95.91
13367;BME280;6752;52.612;13.630;2023-05-02T09:59:55;101270.30;;;15.24;91.98
13367;BME280;6752;52.612;13.630;2023-05-02T10:04:56;101273.69;;;16.10;90.40
13367;BME280;6752;52.612;13.630;2023-05-02T10:09:58;101271.97;;;16.21;83.26
13367;BME280;6752;52.612;13.630;2023-05-02T10:15:02;101278.16;;;16.63;79.54
13367;BME280;6752;52.612;13.630;2023-05-02T10:20:03;101284.54;;;16.51;83.75
13367;BME280;6752;52.612;13.630;2023-05-02T10:25:05;101307.14;;;14.93;97.22
13367;BME280;6752;52.612;13.630;2023-05-02T10:30:07;101321.73;;;14.60;100.00
13367;BME280;6752;52.612;13.630;2023-05-02T10:35:09;101309.34;;;15.59;100.00
13367;BME280;6752;52.612;13.630;2023-05-02T10:40:12;101314.21;;;16.15;95.16
13367;BME280;6752;52.612;13.630;2023-05-02T10:45:30;101323.19;;;16.36;90.43
13367;BME280;6752;52.612;13.630;2023-05-02T10:56:02;101353.27;;;15.41;97.89
13367;BME280;6752;52.612;13.630;2023-05-02T11:00:48;101365.95;;;14.40;99.68
13367;BME280;6752;52.612;13.630;2023-05-02T11:06:05;101377.28;;;13.88;100.00
13367;BME280;6752;52.612;13.630;2023-05-02T11:11:38;101386.45;;;13.54;100.00
13367;BME280;6752;52.612;13.630;2023-05-02T11:37:54;101428.49;;;13.19;100.00
13367;BME280;6752;52.612;13.630;2023-05-02T11:42:57;101433.37;;;13.33;100.00
13367;BME280;6752;52.612;13.630;2023-05-02T11:47:59;101435.73;;;13.82;98.85
13367;BME280;6752;52.612;13.630;2023-05-02T11:53:01;101440.97;;;13.43;95.03
13367;BME280;6752;52.612;13.630;2023-05-02T11:58:03;101449.24;;;13.36;95.21
13367;BME280;6752;52.612;13.630;2023-05-02T12:03:06;101449.41;;;13.42;93.97
13367;BME280;6752;52.612;13.630;2023-05-02T12:08:11;101458.78;;;13.24;90.28
13367;BME280;6752;52.612;13.630;2023-05-02T12:13:10;101462.95;;;13.33;87.96
13367;BME280;6752;52.612;13.630;2023-05-02T12:18:13;101470.83;;;13.55;84.08
13367;BME280;6752;52.612;13.630;2023-05-02T12:23:15;101482.69;;;13.61;83.75
13367;BME280;6752;52.612;13.630;2023-05-02T12:28:18;101487.69;;;13.36;81.70
13367;BME280;6752;52.612;13.630;2023-05-02T12:33:20;101492.34;;;13.06;84.07
13367;BME280;6752;52.612;13.630;2023-05-02T12:38:22;101504.99;;;12.97;83.32
13367;BME280;6752;52.612;13.630;2023-05-02T12:43:25;101502.81;;;13.26;83.41
13367;BME280;6752;52.612;13.630;2023-05-02T12:48:27;101497.82;;;13.48;79.45
13367;BME280;6752;52.612;13.630;2023-05-02T12:53:42;101496.09;;;13.69;77.26
13367;BME280;6752;52.612;13.630;2023-05-02T12:58:44;101506.75;;;13.56;77.33
13367;BME280;6752;52.612;13.630;2023-05-02T13:03:49;101504.53;;;15.28;72.89
13367;BME280;6752;52.612;13.630;2023-05-02T13:08:49;101497.45;;;15.44;69.09
13367;BME280;6752;52.612;13.630;2023-05-02T13:13:51;101512.90;;;14.76;68.59
13367;BME280;6752;52.612;13.630;2023-05-02T13:18:53;101513.96;;;15.26;72.44
13367;BME280;6752;52.612;13.630;2023-05-02T13:23:56;101516.11;;;15.54;65.64
13367;BME280;6752;52.612;13.630;2023-05-02T13:28:58;101527.38;;;15.49;65.71
13367;BME280;6752;52.612;13.630;2023-05-02T13:34:01;101534.48;;;14.35;68.70
13367;BME280;6752;52.612;13.630;2023-05-02T13:39:03;101542.81;;;15.08;65.39
13367;BME280;6752;52.612;13.630;2023-05-02T13:44:05;101536.14;;;15.10;62.60
13367;BME280;6752;52.612;13.630;2023-05-02T13:49:08;101542.13;;;14.45;63.85
13367;BME280;6752;52.612;13.630;2023-05-02T13:54:10;101551.19;;;14.05;63.05
13367;BME280;6752;52.612;13.630;2023-05-02T13:59:12;101565.13;;;13.53;65.59
13367;BME280;6752;52.612;13.630;2023-05-02T14:04:15;101571.23;;;13.32;66.83
13367;BME280;6752;52.612;13.630;2023-05-02T14:09:17;101577.52;;;13.36;66.59
13367;BME280;6752;52.612;13.630;2023-05-02T14:14:19;101579.97;;;13.32;66.22
13367;BME280;6752;52.612;13.630;2023-05-02T14:19:22;101576.53;;;13.43;67.21
13367;BME280;6752;52.612;13.630;2023-05-02T14:24:24;101585.98;;;13.25;68.75
13367;BME280;6752;52.612;13.630;2023-05-02T14:29:27;101601.94;;;12.96;68.81
13367;BME280;6752;52.612;13.630;2023-05-02T14:34:29;101605.05;;;12.64;68.52
13367;BME280;6752;52.612;13.630;2023-05-02T14:39:31;101616.02;;;12.31;68.63
13367;BME280;6752;52.612;13.630;2023-05-02T14:44:34;101617.80;;;12.31;69.24
13367;BME280;6752;52.612;13.630;2023-05-02T14:49:36;101620.51;;;12.18;69.74
13367;BME280;6752;52.612;13.630;2023-05-02T14:54:38;101633.64;;;12.08;71.54
13367;BME280;6752;52.612;13.630;2023-05-02T14:59:41;101638.38;;;11.59;71.66
13367;BME280;6752;52.612;13.630;2023-05-02T15:04:43;101644.03;;;11.51;72.58
13367;BME280;6752;52.612;13.630;2023-05-02T15:09:45;101648.62;;;11.44;72.25
13367;BME280;6752;52.612;13.630;2023-05-02T15:14:47;101649.16;;;11.47;72.25
13367;BME280;6752;52.612;13.630;2023-05-02T15:19:50;101653.67;;;11.26;72.55
13367;BME280;6752;52.612;13.630;2023-05-02T15:24:52;101662.28;;;11.27;73.63
13367;BME280;6752;52.612;13.630;2023-05-02T15:29:54;101664.31;;;10.97;76.51
13367;BME280;6752;52.612;13.630;2023-05-02T15:34:56;101673.52;;;11.10;76.73
13367;BME280;6752;52.612;13.630;2023-05-02T15:39:58;101667.67;;;10.96;73.47
13367;BME280;6752;52.612;13.630;2023-05-02T15:45:01;101666.77;;;12.29;70.69
13367;BME280;6752;52.612;13.630;2023-05-02T15:50:03;101665.13;;;12.58;64.78
13367;BME280;6752;52.612;13.630;2023-05-02T15:55:05;101660.03;;;13.17;64.30
13367;BME280;6752;52.612;13.630;2023-05-02T16:00:08;101659.80;;;13.22;62.99
13367;BME280;6752;52.612;13.630;2023-05-02T16:05:10;101659.86;;;13.41;62.76
13367;BME280;6752;52.612;13.630;2023-05-02T16:10:13;101668.48;;;12.73;61.23
13367;BME280;6752;52.612;13.630;2023-05-02T16:15:15;101664.77;;;13.00;61.37
13367;BME280;6752;52.612;13.630;2023-05-02T16:20:17;101669.73;;;13.03;62.68
13367;BME280;6752;52.612;13.630;2023-05-02T16:25:20;101674.57;;;12.95;61.75
13367;BME280;6752;52.612;13.630;2023-05-02T16:30:22;101676.15;;;12.50;61.34
13367;BME280;6752;52.612;13.630;2023-05-02T16:35:24;101675.85;;;12.66;62.06
13367;BME280;6752;52.612;13.630;2023-05-02T16:40:27;101677.23;;;12.56;61.78
13367;BME280;6752;52.612;13.630;2023-05-02T16:45:29;101687.16;;;12.13;63.84
13367;BME280;6752;52.612;13.630;2023-05-02T16:50:35;101690.19;;;11.80;65.45
13367;BME280;6752;52.612;13.630;2023-05-02T16:55:37;101689.57;;;11.61;66.63
13367;BME280;6752;52.612;13.630;2023-05-02T17:00:39;101689.28;;;11.46;68.12
13367;BME280;6752;52.612;13.630;2023-05-02T17:05:41;101688.09;;;11.24;68.33
13367;BME280;6752;52.612;13.630;2023-05-02T17:10:49;101702.00;;;11.50;67.55
13367;BME280;6752;52.612;13.630;2023-05-02T17:15:52;101707.03;;;11.49;69.58
13367;BME280;6752;52.612;13.630;2023-05-02T17:20:54;101709.45;;;11.83;69.87
13367;BME280;6752;52.612;13.630;2023-05-02T17:25:56;101711.63;;;11.42;69.78
13367;BME280;6752;52.612;13.630;2023-05-02T17:30:59;101712.07;;;11.32;71.12
13367;BME280;6752;52.612;13.630;2023-05-02T17:36:01;101717.31;;;11.30;71.74
13367;BME280;6752;52.612;13.630;2023-05-02T17:41:04;101718.23;;;11.41;71.03
13367;BME280;6752;52.612;13.630;2023-05-02T17:46:06;101715.66;;;11.15;68.70
13367;BME280;6752;52.612;13.630;2023-05-02T17:51:08;101730.77;;;11.04;67.03
13367;BME280;6752;52.612;13.630;2023-05-02T17:56:11;101716.09;;;11.19;67.09
13367;BME280;6752;52.612;13.630;2023-05-02T18:01:13;101728.87;;;11.01;68.86
13367;BME280;6752;52.612;13.630;2023-05-02T18:06:16;101738.58;;;11.10;69.86
13367;BME280;6752;52.612;13.630;2023-05-02T18:11:18;101747.40;;;10.95;71.08
13367;BME280;6752;52.612;13.630;2023-05-02T18:16:20;101751.59;;;10.94;73.46
13367;BME280;6752;52.612;13.630;2023-05-02T18:21:22;101754.14;;;10.99;74.37
13367;BME280;6752;52.612;13.630;2023-05-02T18:26:25;101762.67;;;10.89;83.75
13367;BME280;6752;52.612;13.630;2023-05-02T18:31:27;101756.32;;;10.85;80.05
13367;BME280;6752;52.612;13.630;2023-05-02T18:36:30;101761.28;;;11.00;78.61
13367;BME280;6752;52.612;13.630;2023-05-02T18:41:32;101764.08;;;10.71;79.95
13367;BME280;6752;52.612;13.630;2023-05-02T18:46:34;101760.94;;;10.21;79.18
13367;BME280;6752;52.612;13.630;2023-05-02T18:51:37;101765.95;;;10.49;76.58
13367;BME280;6752;52.612;13.630;2023-05-02T18:56:40;101772.28;;;10.42;78.38
13367;BME280;6752;52.612;13.630;2023-05-02T19:01:41;101774.78;;;10.23;83.06
13367;BME280;6752;52.612;13.630;2023-05-02T19:06:44;101784.12;;;10.53;80.97
13367;BME280;6752;52.612;13.630;2023-05-02T19:11:46;101791.73;;;10.47;81.73
13367;BME280;6752;52.612;13.630;2023-05-02T19:16:48;101788.19;;;10.50;81.60
13367;BME280;6752;52.612;13.630;2023-05-02T19:21:51;101802.14;;;10.50;82.21
13367;BME280;6752;52.612;13.630;2023-05-02T19:26:53;101800.45;;;10.50;83.72
13367;BME280;6752;52.612;13.630;2023-05-02T19:31:56;101809.73;;;10.37;83.19
13367;BME280;6752;52.612;13.630;2023-05-02T19:36:58;101815.52;;;10.16;83.44
13367;BME280;6752;52.612;13.630;2023-05-02T19:42:00;101819.23;;;10.23;83.27
13367;BME280;6752;52.612;13.630;2023-05-02T19:47:03;101821.91;;;10.16;81.19
13367;BME280;6752;52.612;13.630;2023-05-02T19:52:05;101821.56;;;10.19;81.84
13367;BME280;6752;52.612;13.630;2023-05-02T19:57:07;101824.33;;;10.07;81.41
13367;BME280;6752;52.612;13.630;2023-05-02T20:02:10;101828.49;;;10.14;81.75
13367;BME280;6752;52.612;13.630;2023-05-02T20:07:12;101839.29;;;9.97;83.44
13367;BME280;6752;52.612;13.630;2023-05-02T20:12:14;101841.78;;;9.95;81.80
13367;BME280;6752;52.612;13.630;2023-05-02T20:17:17;101840.98;;;9.98;79.60
13367;BME280;6752;52.612;13.630;2023-05-02T20:22:20;101835.56;;;9.86;78.59
13367;BME280;6752;52.612;13.630;2023-05-02T20:27:22;101841.67;;;9.81;80.93
13367;BME280;6752;52.612;13.630;2023-05-02T20:32:25;101843.22;;;9.79;79.18
13367;BME280;6752;52.612;13.630;2023-05-02T20:37:27;101852.61;;;9.84;77.87
13367;BME280;6752;52.612;13.630;2023-05-02T20:42:29;101857.88;;;9.78;79.10
13367;BME280;6752;52.612;13.630;2023-05-02T20:47:32;101868.50;;;9.69;80.84
13367;BME280;6752;52.612;13.630;2023-05-02T20:52:37;101860.45;;;9.91;81.14
13367;BME280;6752;52.612;13.630;2023-05-02T20:57:40;101879.58;;;9.68;81.96
13367;BME280;6752;52.612;13.630;2023-05-02T21:02:42;101876.76;;;9.54;84.50
13367;BME280;6752;52.612;13.630;2023-05-02T21:07:44;101892.90;;;9.48;85.45
13367;BME280;6752;52.612;13.630;2023-05-02T21:12:47;101889.15;;;9.37;84.46
13367;BME280;6752;52.612;13.630;2023-05-02T21:17:49;101894.73;;;9.40;85.61
13367;BME280;6752;52.612;13.630;2023-05-02T21:22:51;101907.45;;;9.44;85.36
13367;BME280;6752;52.612;13.630;2023-05-02T21:27:54;101901.05;;;9.29;86.59
13367;BME280;6752;52.612;13.630;2023-05-02T21:32:56;101904.37;;;9.16;85.95
13367;BME280;6752;52.612;13.630;2023-05-02T21:37:59;101904.98;;;9.27;84.70
13367;BME280;6752;52.612;13.630;2023-05-02T21:43:01;101909.11;;;9.18;86.02
13367;BME280;6752;52.612;13.630;2023-05-02T21:48:03;101903.77;;;9.18;86.17
13367;BME280;6752;52.612;13.630;2023-05-02T21:53:06;101907.89;;;9.21;85.92
13367;BME280;6752;52.612;13.630;2023-05-02T21:58:09;101915.10;;;9.14;85.59
13367;BME280;6752;52.612;13.630;2023-05-02T22:03:10;101908.08;;;9.23;86.70
13367;BME280;6752;52.612;13.630;2023-05-02T22:08:13;101915.98;;;9.33;87.25
13367;BME280;6752;52.612;13.630;2023-05-02T22:13:15;101913.52;;;9.19;88.85
13367;BME280;6752;52.612;13.630;2023-05-02T22:18:17;101918.37;;;9.09;89.45
13367;BME280;6752;52.612;13.630;2023-05-02T22:23:20;101921.40;;;9.03;89.43
13367;BME280;6752;52.612;13.630;2023-05-02T22:28:22;101921.14;;;9.13;89.09
13367;BME280;6752;52.612;13.630;2023-05-02T22:33:24;101926.84;;;9.03;89.38
13367;BME280;6752;52.612;13.630;2023-05-02T22:38:27;101928.95;;;8.89;91.44
13367;BME280;6752;52.612;13.630;2023-05-02T22:43:29;101932.91;;;8.93;91.15
13367;BME280;6752;52.612;13.630;2023-05-02T22:48:31;101938.98;;;8.88;91.64
13367;BME280;6752;52.612;13.630;2023-05-02T22:53:34;101944.00;;;8.88;92.36
13367;BME280;6752;52.612;13.630;2023-05-02T22:58:36;101946.20;;;8.89;92.03
13367;BME280;6752;52.612;13.630;2023-05-02T23:03:38;101945.55;;;8.86;92.54
13367;BME280;6752;52.612;13.630;2023-05-02T23:08:41;101955.48;;;8.87;92.89
13367;BME280;6752;52.612;13.630;2023-05-02T23:13:43;101955.87;;;8.80;93.40
13367;BME280;6752;52.612;13.630;2023-05-02T23:18:46;101962.67;;;8.80;91.75
13367;BME280;6752;52.612;13.630;2023-05-02T23:23:48;101960.10;;;8.82;90.03
13367;BME280;6752;52.612;13.630;2023-05-02T23:28:50;101964.27;;;8.81;89.17
13367;BME280;6752;52.612;13.630;2023-05-02T23:33:53;101973.86;;;8.65;91.30
13367;BME280;6752;52.612;13.630;2023-05-02T23:38:55;101968.27;;;8.63;92.12
13367;BME280;6752;52.612;13.630;2023-05-02T23:43:57;101965.33;;;8.57;93.44
13367;BME280;6752;52.612;13.630;2023-05-02T23:49:00;101964.98;;;8.56;94.73
13367;BME280;6752;52.612;13.630;2023-05-02T23:54:02;101961.31;;;8.60;95.88
13367;BME280;6752;52.612;13.630;2023-05-02T23:59:04;101967.97;;;8.49;94.90
